sensor_id;sensor_type;location;lat;lon;timestamp;P1;durP1;ratioP1;P2;durP2;ratioP2
32533;SDS011;18973;48.580;8.912;2023-08-24T00:01:25;425.92;;;399.23;;
32533;SDS011;18973;48.580;8.912;2023-08-24T00:03:51;435.15;;;407.65;;
32533;SDS011;18973;48.580;8.912;2023-08-24T00:06:16;406.85;;;381.10;;
32533;SDS011;18973;48.580;8.912;2023-08-24T00:08:42;410.80;;;384.95;;
32533;SDS011;18973;48.580;8.912;2023-08-24T00:11:08;394.27;;;369.80;;
32533;SDS011;18973;48.580;8.912;2023-08-24T00:13:39;403.33;;;378.20;;
32533;SDS011;18973;48.580;8.912;2023-08-24T00:16:13;394.60;;;369.70;;
32533;SDS011;18973;48.580;8.912;2023-08-24T00:18:40;377.92;;;354.75;;
32533;SDS011;18973;48.580;8.912;2023-08-24T00:21:07;391.40;;;367.38;;
32533;SDS011;18973;48.580;8.912;2023-08-24T00:23:33;400.67;;;375.50;;
32533;SDS011;18973;48.580;8.912;2023-08-24T00:25:58;408.45;;;382.67;;
32533;SDS011;18973;48.580;8.912;2023-08-24T00:28:25;410.15;;;384.20;;
32533;SDS011;18973;48.580;8.912;2023-08-24T00:30:51;404.65;;;379.42;;
32533;SDS011;18973;48.580;8.912;2023-08-24T00:33:16;408.63;;;383.02;;
32533;SDS011;18973;48.580;8.912;2023-08-24T00:35:42;410.15;;;384.73;;
32533;SDS011;18973;48.580;8.912;2023-08-24T00:38:08;488.88;;;457.45;;
32533;SDS011;18973;48.580;8.912;2023-08-24T00:40:34;508.20;;;474.75;;
32533;SDS011;18973;48.580;8.912;2023-08-24T00:42:59;491.48;;;459.42;;
32533;SDS011;18973;48.580;8.912;2023-08-24T00:45:25;490.40;;;458.42;;
32533;SDS011;18973;48.580;8.912;2023-08-24T00:47:54;48.33;;;45.50;;
32533;SDS011;18973;48.580;8.912;2023-08-24T00:50:19;50.28;;;47.63;;
32533;SDS011;18973;48.580;8.912;2023-08-24T00:52:45;51.35;;;48.30;;
32533;SDS011;18973;48.580;8.912;2023-08-24T00:55:12;56.03;;;52.97;;
32533;SDS011;18973;48.580;8.912;2023-08-24T00:57:39;487.10;;;454.83;;
32533;SDS011;18973;48.580;8.912;2023-08-24T01:00:06;537.03;;;501.02;;
32533;SDS011;18973;48.580;8.912;2023-08-24T01:02:36;520.10;;;485.70;;
32533;SDS011;18973;48.580;8.912;2023-08-24T01:05:05;542.58;;;506.58;;
32533;SDS011;18973;48.580;8.912;2023-08-24T01:07:38;546.83;;;510.23;;
32533;SDS011;18973;48.580;8.912;2023-08-24T01:10:05;565.53;;;527.90;;
32533;SDS011;18973;48.580;8.912;2023-08-24T01:17:52;158.82;;;149.85;;
32533;SDS011;18973;48.580;8.912;2023-08-24T01:20:20;192.20;;;181.65;;
32533;SDS011;18973;48.580;8.912;2023-08-24T01:25:40;150.60;;;142.27;;
32533;SDS011;18973;48.580;8.912;2023-08-24T01:28:10;155.85;;;147.02;;
32533;SDS011;18973;48.580;8.912;2023-08-24T01:30:38;165.98;;;156.63;;
32533;SDS011;18973;48.580;8.912;2023-08-24T01:33:07;170.30;;;160.82;;
32533;SDS011;18973;48.580;8.912;2023-08-24T01:35:37;178.73;;;168.65;;
32533;SDS011;18973;48.580;8.912;2023-08-24T01:38:04;177.70;;;167.70;;
32533;SDS011;18973;48.580;8.912;2023-08-24T01:43:25;74.82;;;70.78;;
32533;SDS011;18973;48.580;8.912;2023-08-24T01:45:55;85.72;;;80.97;;
32533;SDS011;18973;48.580;8.912;2023-08-24T01:48:23;60.60;;;57.30;;
32533;SDS011;18973;48.580;8.912;2023-08-24T01:50:50;73.35;;;69.35;;
32533;SDS011;18973;48.580;8.912;2023-08-24T01:53:16;71.07;;;67.15;;
32533;SDS011;18973;48.580;8.912;2023-08-24T01:55:42;39.90;;;37.75;;
32533;SDS011;18973;48.580;8.912;2023-08-24T01:58:10;37.85;;;35.78;;
32533;SDS011;18973;48.580;8.912;2023-08-24T02:00:36;44.45;;;42.00;;
32533;SDS011;18973;48.580;8.912;2023-08-24T02:03:01;41.67;;;39.40;;
32533;SDS011;18973;48.580;8.912;2023-08-24T02:05:27;40.67;;;38.42;;
32533;SDS011;18973;48.580;8.912;2023-08-24T02:07:54;44.40;;;41.85;;
32533;SDS011;18973;48.580;8.912;2023-08-24T02:10:20;43.22;;;40.65;;
32533;SDS011;18973;48.580;8.912;2023-08-24T02:12:46;38.45;;;36.25;;
32533;SDS011;18973;48.580;8.912;2023-08-24T02:15:11;43.25;;;40.88;;
32533;SDS011;18973;48.580;8.912;2023-08-24T02:17:37;44.47;;;41.97;;
32533;SDS011;18973;48.580;8.912;2023-08-24T02:20:03;48.78;;;46.08;;
32533;SDS011;18973;48.580;8.912;2023-08-24T02:22:30;47.42;;;44.90;;
32533;SDS011;18973;48.580;8.912;2023-08-24T02:24:55;46.35;;;43.88;;
32533;SDS011;18973;48.580;8.912;2023-08-24T02:27:21;41.90;;;39.55;;
32533;SDS011;18973;48.580;8.912;2023-08-24T02:29:50;43.20;;;40.65;;
32533;SDS011;18973;48.580;8.912;2023-08-24T02:32:16;42.97;;;40.42;;
32533;SDS011;18973;48.580;8.912;2023-08-24T02:34:41;42.95;;;40.45;;
32533;SDS011;18973;48.580;8.912;2023-08-24T02:37:07;40.63;;;38.45;;
32533;SDS011;18973;48.580;8.912;2023-08-24T02:39:33;41.30;;;38.72;;
32533;SDS011;18973;48.580;8.912;2023-08-24T02:41:58;41.38;;;39.15;;
32533;SDS011;18973;48.580;8.912;2023-08-24T02:44:24;47.30;;;44.58;;
32533;SDS011;18973;48.580;8.912;2023-08-24T02:46:51;46.38;;;43.97;;
32533;SDS011;18973;48.580;8.912;2023-08-24T02:49:16;41.40;;;39.28;;
32533;SDS011;18973;48.580;8.912;2023-08-24T02:51:43;43.58;;;40.88;;
32533;SDS011;18973;48.580;8.912;2023-08-24T02:54:08;49.40;;;46.80;;
32533;SDS011;18973;48.580;8.912;2023-08-24T02:56:34;47.17;;;44.72;;
32533;SDS011;18973;48.580;8.912;2023-08-24T02:59:00;46.60;;;44.08;;
32533;SDS011;18973;48.580;8.912;2023-08-24T03:01:25;49.47;;;46.58;;
32533;SDS011;18973;48.580;8.912;2023-08-24T03:03:51;46.17;;;43.45;;
32533;SDS011;18973;48.580;8.912;2023-08-24T03:06:17;52.28;;;49.45;;
32533;SDS011;18973;48.580;8.912;2023-08-24T03:08:46;54.60;;;51.65;;
32533;SDS011;18973;48.580;8.912;2023-08-24T03:11:11;49.60;;;47.00;;
32533;SDS011;18973;48.580;8.912;2023-08-24T03:13:37;42.80;;;40.45;;
32533;SDS011;18973;48.580;8.912;2023-08-24T03:16:04;49.70;;;47.03;;
32533;SDS011;18973;48.580;8.912;2023-08-24T03:18:30;45.65;;;43.13;;
32533;SDS011;18973;48.580;8.912;2023-08-24T03:20:56;41.88;;;39.72;;
32533;SDS011;18973;48.580;8.912;2023-08-24T03:23:22;47.22;;;44.58;;
32533;SDS011;18973;48.580;8.912;2023-08-24T03:25:48;47.00;;;44.42;;
32533;SDS011;18973;48.580;8.912;2023-08-24T03:28:16;47.60;;;44.95;;
32533;SDS011;18973;48.580;8.912;2023-08-24T03:30:46;48.08;;;45.50;;
32533;SDS011;18973;48.580;8.912;2023-08-24T03:33:13;50.67;;;48.08;;
32533;SDS011;18973;48.580;8.912;2023-08-24T03:35:39;58.17;;;55.13;;
32533;SDS011;18973;48.580;8.912;2023-08-24T03:38:05;58.00;;;54.33;;
32533;SDS011;18973;48.580;8.912;2023-08-24T03:40:31;54.42;;;51.38;;
32533;SDS011;18973;48.580;8.912;2023-08-24T03:42:57;58.35;;;55.22;;
32533;SDS011;18973;48.580;8.912;2023-08-24T03:45:22;54.03;;;50.60;;
32533;SDS011;18973;48.580;8.912;2023-08-24T03:47:48;54.90;;;51.83;;
32533;SDS011;18973;48.580;8.912;2023-08-24T03:50:14;49.30;;;46.58;;
32533;SDS011;18973;48.580;8.912;2023-08-24T03:52:40;54.50;;;51.55;;
32533;SDS011;18973;48.580;8.912;2023-08-24T03:55:06;55.20;;;52.25;;
32533;SDS011;18973;48.580;8.912;2023-08-24T03:57:33;57.80;;;54.45;;
32533;SDS011;18973;48.580;8.912;2023-08-24T03:59:59;64.63;;;61.30;;
32533;SDS011;18973;48.580;8.912;2023-08-24T04:02:25;109.38;;;103.13;;
32533;SDS011;18973;48.580;8.912;2023-08-24T04:04:51;113.80;;;107.03;;
32533;SDS011;18973;48.580;8.912;2023-08-24T04:07:17;118.68;;;112.05;;
32533;SDS011;18973;48.580;8.912;2023-08-24T04:09:43;104.07;;;98.05;;
32533;SDS011;18973;48.580;8.912;2023-08-24T04:12:10;94.82;;;89.75;;
32533;SDS011;18973;48.580;8.912;2023-08-24T04:14:36;97.32;;;92.13;;
32533;SDS011;18973;48.580;8.912;2023-08-24T04:17:01;96.55;;;91.22;;
32533;SDS011;18973;48.580;8.912;2023-08-24T04:19:27;104.13;;;98.10;;
32533;SDS011;18973;48.580;8.912;2023-08-24T04:21:53;102.60;;;96.70;;
32533;SDS011;18973;48.580;8.912;2023-08-24T04:24:19;83.18;;;78.63;;
32533;SDS011;18973;48.580;8.912;2023-08-24T04:26:44;78.72;;;74.32;;
32533;SDS011;18973;48.580;8.912;2023-08-24T04:29:11;78.05;;;73.72;;
32533;SDS011;18973;48.580;8.912;2023-08-24T04:31:37;79.53;;;75.22;;
32533;SDS011;18973;48.580;8.912;2023-08-24T04:34:07;31.15;;;28.85;;
32533;SDS011;18973;48.580;8.912;2023-08-24T04:36:32;33.00;;;31.10;;
32533;SDS011;18973;48.580;8.912;2023-08-24T04:38:58;48.35;;;45.72;;
32533;SDS011;18973;48.580;8.912;2023-08-24T04:41:24;57.17;;;53.92;;
32533;SDS011;18973;48.580;8.912;2023-08-24T04:43:49;64.88;;;61.22;;
32533;SDS011;18973;48.580;8.912;2023-08-24T04:46:15;19.58;;;18.25;;
32533;SDS011;18973;48.580;8.912;2023-08-24T04:48:41;80.95;;;76.53;;
32533;SDS011;18973;48.580;8.912;2023-08-24T04:51:06;103.88;;;97.75;;
32533;SDS011;18973;48.580;8.912;2023-08-24T04:53:32;56.78;;;53.67;;
32533;SDS011;18973;48.580;8.912;2023-08-24T04:55:58;115.25;;;108.63;;
32533;SDS011;18973;48.580;8.912;2023-08-24T04:58:23;102.35;;;96.65;;
32533;SDS011;18973;48.580;8.912;2023-08-24T05:00:50;100.75;;;94.90;;
32533;SDS011;18973;48.580;8.912;2023-08-24T05:03:16;19.75;;;18.25;;
32533;SDS011;18973;48.580;8.912;2023-08-24T05:05:41;72.85;;;68.70;;
32533;SDS011;18973;48.580;8.912;2023-08-24T05:08:07;32.63;;;30.67;;
32533;SDS011;18973;48.580;8.912;2023-08-24T05:10:36;26.90;;;25.33;;
32533;SDS011;18973;48.580;8.912;2023-08-24T05:13:02;31.45;;;29.23;;
32533;SDS011;18973;48.580;8.912;2023-08-24T05:15:28;32.20;;;30.33;;
32533;SDS011;18973;48.580;8.912;2023-08-24T05:17:54;36.80;;;34.58;;
32533;SDS011;18973;48.580;8.912;2023-08-24T05:20:21;30.40;;;28.42;;
32533;SDS011;18973;48.580;8.912;2023-08-24T05:22:47;29.90;;;28.25;;
32533;SDS011;18973;48.580;8.912;2023-08-24T05:25:13;33.65;;;31.40;;
32533;SDS011;18973;48.580;8.912;2023-08-24T05:27:41;35.35;;;33.30;;
32533;SDS011;18973;48.580;8.912;2023-08-24T05:30:07;34.20;;;32.25;;
32533;SDS011;18973;48.580;8.912;2023-08-24T05:32:34;36.08;;;33.97;;
32533;SDS011;18973;48.580;8.912;2023-08-24T05:35:03;30.85;;;28.45;;
32533;SDS011;18973;48.580;8.912;2023-08-24T05:37:32;31.02;;;29.05;;
32533;SDS011;18973;48.580;8.912;2023-08-24T05:40:01;33.00;;;31.13;;
32533;SDS011;18973;48.580;8.912;2023-08-24T05:42:27;32.22;;;30.30;;
32533;SDS011;18973;48.580;8.912;2023-08-24T05:44:53;31.83;;;29.95;;
32533;SDS011;18973;48.580;8.912;2023-08-24T05:47:21;30.50;;;28.25;;
32533;SDS011;18973;48.580;8.912;2023-08-24T05:49:47;32.15;;;30.23;;
32533;SDS011;18973;48.580;8.912;2023-08-24T05:52:13;33.90;;;31.40;;
32533;SDS011;18973;48.580;8.912;2023-08-24T05:54:38;37.03;;;34.80;;
32533;SDS011;18973;48.580;8.912;2023-08-24T05:57:04;38.78;;;36.55;;
32533;SDS011;18973;48.580;8.912;2023-08-24T05:59:33;39.10;;;36.80;;
32533;SDS011;18973;48.580;8.912;2023-08-24T06:01:59;37.47;;;35.40;;
32533;SDS011;18973;48.580;8.912;2023-08-24T06:04:25;37.80;;;35.45;;
32533;SDS011;18973;48.580;8.912;2023-08-24T06:06:51;38.17;;;36.00;;
32533;SDS011;18973;48.580;8.912;2023-08-24T06:09:17;36.00;;;33.90;;
32533;SDS011;18973;48.580;8.912;2023-08-24T06:11:42;33.80;;;31.85;;
32533;SDS011;18973;48.580;8.912;2023-08-24T06:14:08;41.15;;;38.33;;
32533;SDS011;18973;48.580;8.912;2023-08-24T06:16:33;38.15;;;35.88;;
32533;SDS011;18973;48.580;8.912;2023-08-24T06:18:59;39.55;;;37.33;;
32533;SDS011;18973;48.580;8.912;2023-08-24T06:21:25;42.60;;;39.80;;
32533;SDS011;18973;48.580;8.912;2023-08-24T06:23:50;38.88;;;36.55;;
32533;SDS011;18973;48.580;8.912;2023-08-24T06:26:17;35.47;;;33.47;;
32533;SDS011;18973;48.580;8.912;2023-08-24T06:28:43;41.90;;;39.65;;
32533;SDS011;18973;48.580;8.912;2023-08-24T06:31:09;41.28;;;39.00;;
32533;SDS011;18973;48.580;8.912;2023-08-24T06:33:34;44.17;;;41.72;;
32533;SDS011;18973;48.580;8.912;2023-08-24T06:36:01;41.03;;;38.65;;
32533;SDS011;18973;48.580;8.912;2023-08-24T06:38:30;42.38;;;39.88;;
32533;SDS011;18973;48.580;8.912;2023-08-24T06:40:57;47.40;;;44.72;;
32533;SDS011;18973;48.580;8.912;2023-08-24T06:43:23;39.78;;;37.53;;
32533;SDS011;18973;48.580;8.912;2023-08-24T06:45:48;36.80;;;34.85;;
32533;SDS011;18973;48.580;8.912;2023-08-24T06:48:14;36.17;;;33.78;;
32533;SDS011;18973;48.580;8.912;2023-08-24T06:50:40;37.75;;;35.58;;
32533;SDS011;18973;48.580;8.912;2023-08-24T06:53:06;42.30;;;39.88;;
32533;SDS011;18973;48.580;8.912;2023-08-24T06:55:31;41.08;;;38.75;;
32533;SDS011;18973;48.580;8.912;2023-08-24T06:57:57;43.20;;;40.80;;
32533;SDS011;18973;48.580;8.912;2023-08-24T07:00:23;42.63;;;40.22;;
32533;SDS011;18973;48.580;8.912;2023-08-24T07:02:50;36.40;;;33.63;;
32533;SDS011;18973;48.580;8.912;2023-08-24T07:05:16;39.92;;;37.38;;
32533;SDS011;18973;48.580;8.912;2023-08-24T07:07:45;37.63;;;35.55;;
32533;SDS011;18973;48.580;8.912;2023-08-24T07:10:12;41.63;;;39.10;;
32533;SDS011;18973;48.580;8.912;2023-08-24T07:12:38;41.75;;;39.42;;
32533;SDS011;18973;48.580;8.912;2023-08-24T07:15:13;51.45;;;48.58;;
32533;SDS011;18973;48.580;8.912;2023-08-24T07:17:39;38.00;;;35.85;;
32533;SDS011;18973;48.580;8.912;2023-08-24T07:20:05;35.08;;;33.08;;
32533;SDS011;18973;48.580;8.912;2023-08-24T07:22:33;40.97;;;38.63;;
32533;SDS011;18973;48.580;8.912;2023-08-24T07:25:00;30.85;;;28.75;;
32533;SDS011;18973;48.580;8.912;2023-08-24T07:27:26;32.28;;;30.55;;
32533;SDS011;18973;48.580;8.912;2023-08-24T07:29:53;28.83;;;27.20;;
32533;SDS011;18973;48.580;8.912;2023-08-24T07:32:19;30.33;;;28.65;;
32533;SDS011;18973;48.580;8.912;2023-08-24T07:34:44;28.35;;;26.52;;
32533;SDS011;18973;48.580;8.912;2023-08-24T07:37:10;16.92;;;15.77;;
32533;SDS011;18973;48.580;8.912;2023-08-24T07:39:37;17.73;;;16.58;;
32533;SDS011;18973;48.580;8.912;2023-08-24T07:42:03;14.00;;;12.85;;
32533;SDS011;18973;48.580;8.912;2023-08-24T07:44:29;10.02;;;8.90;;
32533;SDS011;18973;48.580;8.912;2023-08-24T07:46:55;7.55;;;6.65;;
32533;SDS011;18973;48.580;8.912;2023-08-24T07:49:21;11.90;;;8.10;;
32533;SDS011;18973;48.580;8.912;2023-08-24T07:51:46;7.88;;;7.07;;
32533;SDS011;18973;48.580;8.912;2023-08-24T07:54:12;14.20;;;9.52;;
32533;SDS011;18973;48.580;8.912;2023-08-24T07:56:38;10.23;;;9.45;;
32533;SDS011;18973;48.580;8.912;2023-08-24T07:59:07;8.55;;;7.55;;
32533;SDS011;18973;48.580;8.912;2023-08-24T08:01:33;12.13;;;7.60;;
32533;SDS011;18973;48.580;8.912;2023-08-24T08:03:58;11.50;;;7.18;;
32533;SDS011;18973;48.580;8.912;2023-08-24T08:06:25;7.07;;;5.85;;
32533;SDS011;18973;48.580;8.912;2023-08-24T08:08:51;6.75;;;5.93;;
32533;SDS011;18973;48.580;8.912;2023-08-24T08:11:17;6.63;;;5.38;;
32533;SDS011;18973;48.580;8.912;2023-08-24T08:13:43;5.80;;;5.18;;
32533;SDS011;18973;48.580;8.912;2023-08-24T08:16:09;8.32;;;5.35;;
32533;SDS011;18973;48.580;8.912;2023-08-24T08:18:35;8.55;;;5.03;;
32533;SDS011;18973;48.580;8.912;2023-08-24T08:21:08;5.47;;;4.03;;
32533;SDS011;18973;48.580;8.912;2023-08-24T08:23:43;8.07;;;4.28;;
32533;SDS011;18973;48.580;8.912;2023-08-24T08:26:10;6.78;;;4.35;;
32533;SDS011;18973;48.580;8.912;2023-08-24T08:28:36;7.47;;;3.83;;
32533;SDS011;18973;48.580;8.912;2023-08-24T08:31:02;13.15;;;4.15;;
32533;SDS011;18973;48.580;8.912;2023-08-24T08:33:28;3.72;;;3.05;;
32533;SDS011;18973;48.580;8.912;2023-08-24T08:35:54;5.07;;;3.50;;
32533;SDS011;18973;48.580;8.912;2023-08-24T08:38:21;3.72;;;2.85;;
32533;SDS011;18973;48.580;8.912;2023-08-24T08:40:50;4.72;;;3.67;;
32533;SDS011;18973;48.580;8.912;2023-08-24T08:43:18;5.75;;;3.03;;
32533;SDS011;18973;48.580;8.912;2023-08-24T08:45:46;4.35;;;3.08;;
32533;SDS011;18973;48.580;8.912;2023-08-24T08:48:16;6.68;;;3.38;;
32533;SDS011;18973;48.580;8.912;2023-08-24T08:50:43;4.32;;;2.90;;
32533;SDS011;18973;48.580;8.912;2023-08-24T08:53:09;4.75;;;3.78;;
32533;SDS011;18973;48.580;8.912;2023-08-24T08:55:35;6.13;;;3.22;;
32533;SDS011;18973;48.580;8.912;2023-08-24T08:58:01;6.07;;;2.97;;
32533;SDS011;18973;48.580;8.912;2023-08-24T09:00:29;5.47;;;3.30;;
32533;SDS011;18973;48.580;8.912;2023-08-24T09:02:56;4.43;;;2.80;;
32533;SDS011;18973;48.580;8.912;2023-08-24T09:05:22;4.85;;;2.90;;
32533;SDS011;18973;48.580;8.912;2023-08-24T09:07:51;4.25;;;3.17;;
32533;SDS011;18973;48.580;8.912;2023-08-24T09:10:19;3.80;;;3.05;;
32533;SDS011;18973;48.580;8.912;2023-08-24T09:12:45;4.72;;;3.13;;
32533;SDS011;18973;48.580;8.912;2023-08-24T09:15:11;6.78;;;3.50;;
32533;SDS011;18973;48.580;8.912;2023-08-24T09:17:43;4.60;;;3.33;;
32533;SDS011;18973;48.580;8.912;2023-08-24T09:20:09;7.70;;;3.80;;
32533;SDS011;18973;48.580;8.912;2023-08-24T09:22:36;3.83;;;2.95;;
32533;SDS011;18973;48.580;8.912;2023-08-24T09:25:03;9.02;;;3.25;;
32533;SDS011;18973;48.580;8.912;2023-08-24T09:27:31;4.10;;;2.88;;
32533;SDS011;18973;48.580;8.912;2023-08-24T09:29:57;2.92;;;2.67;;
32533;SDS011;18973;48.580;8.912;2023-08-24T09:32:23;6.35;;;3.55;;
32533;SDS011;18973;48.580;8.912;2023-08-24T09:34:52;3.80;;;3.15;;
32533;SDS011;18973;48.580;8.912;2023-08-24T09:37:18;3.70;;;2.88;;
32533;SDS011;18973;48.580;8.912;2023-08-24T09:39:45;6.97;;;2.85;;
32533;SDS011;18973;48.580;8.912;2023-08-24T09:42:11;3.55;;;2.88;;
32533;SDS011;18973;48.580;8.912;2023-08-24T09:44:42;6.32;;;3.28;;
32533;SDS011;18973;48.580;8.912;2023-08-24T09:47:10;4.95;;;3.67;;
32533;SDS011;18973;48.580;8.912;2023-08-24T09:49:36;4.63;;;3.30;;
32533;SDS011;18973;48.580;8.912;2023-08-24T09:52:02;6.53;;;2.95;;
32533;SDS011;18973;48.580;8.912;2023-08-24T09:54:32;4.15;;;3.13;;
32533;SDS011;18973;48.580;8.912;2023-08-24T09:57:01;4.20;;;2.92;;
32533;SDS011;18973;48.580;8.912;2023-08-24T09:59:29;5.07;;;3.05;;
32533;SDS011;18973;48.580;8.912;2023-08-24T10:01:57;3.38;;;2.90;;
32533;SDS011;18973;48.580;8.912;2023-08-24T10:04:30;4.38;;;3.20;;
32533;SDS011;18973;48.580;8.912;2023-08-24T10:07:10;8.88;;;3.40;;
32533;SDS011;18973;48.580;8.912;2023-08-24T10:10:02;4.55;;;3.33;;
32533;SDS011;18973;48.580;8.912;2023-08-24T10:12:29;5.28;;;3.30;;
32533;SDS011;18973;48.580;8.912;2023-08-24T10:15:01;4.65;;;2.67;;
32533;SDS011;18973;48.580;8.912;2023-08-24T10:17:29;6.38;;;3.85;;
32533;SDS011;18973;48.580;8.912;2023-08-24T10:19:58;6.32;;;3.03;;
32533;SDS011;18973;48.580;8.912;2023-08-24T10:22:29;3.85;;;3.33;;
32533;SDS011;18973;48.580;8.912;2023-08-24T10:24:56;5.32;;;3.60;;
32533;SDS011;18973;48.580;8.912;2023-08-24T10:27:23;8.18;;;3.75;;
32533;SDS011;18973;48.580;8.912;2023-08-24T10:29:50;7.15;;;4.03;;
32533;SDS011;18973;48.580;8.912;2023-08-24T10:32:16;5.63;;;4.07;;
32533;SDS011;18973;48.580;8.912;2023-08-24T10:34:42;5.93;;;4.25;;
32533;SDS011;18973;48.580;8.912;2023-08-24T10:37:08;3.47;;;3.00;;
32533;SDS011;18973;48.580;8.912;2023-08-24T10:39:35;6.10;;;3.92;;
32533;SDS011;18973;48.580;8.912;2023-08-24T10:42:04;6.50;;;3.65;;
32533;SDS011;18973;48.580;8.912;2023-08-24T10:44:35;4.90;;;3.35;;
32533;SDS011;18973;48.580;8.912;2023-08-24T10:47:21;4.10;;;3.63;;
32533;SDS011;18973;48.580;8.912;2023-08-24T10:52:29;5.60;;;3.42;;
32533;SDS011;18973;48.580;8.912;2023-08-24T10:55:03;4.30;;;3.33;;
32533;SDS011;18973;48.580;8.912;2023-08-24T10:57:38;4.63;;;3.67;;
32533;SDS011;18973;48.580;8.912;2023-08-24T11:00:08;4.65;;;3.70;;
32533;SDS011;18973;48.580;8.912;2023-08-24T11:02:46;4.22;;;3.08;;
32533;SDS011;18973;48.580;8.912;2023-08-24T11:05:28;6.78;;;3.30;;
32533;SDS011;18973;48.580;8.912;2023-08-24T11:07:58;5.85;;;3.63;;
32533;SDS011;18973;48.580;8.912;2023-08-24T11:10:37;8.15;;;3.65;;
32533;SDS011;18973;48.580;8.912;2023-08-24T11:13:14;10.05;;;3.95;;
32533;SDS011;18973;48.580;8.912;2023-08-24T11:15:42;7.05;;;3.58;;
32533;SDS011;18973;48.580;8.912;2023-08-24T11:23:29;5.22;;;3.60;;
32533;SDS011;18973;48.580;8.912;2023-08-24T11:25:57;4.63;;;3.67;;
32533;SDS011;18973;48.580;8.912;2023-08-24T11:28:24;7.28;;;3.60;;
32533;SDS011;18973;48.580;8.912;2023-08-24T11:30:52;5.50;;;3.95;;
32533;SDS011;18973;48.580;8.912;2023-08-24T11:33:28;4.70;;;3.60;;
32533;SDS011;18973;48.580;8.912;2023-08-24T11:35:55;5.05;;;3.05;;
32533;SDS011;18973;48.580;8.912;2023-08-24T11:38:21;5.78;;;4.05;;
32533;SDS011;18973;48.580;8.912;2023-08-24T11:40:47;6.50;;;3.38;;
32533;SDS011;18973;48.580;8.912;2023-08-24T11:43:20;3.85;;;3.45;;
32533;SDS011;18973;48.580;8.912;2023-08-24T11:45:50;5.45;;;3.83;;
32533;SDS011;18973;48.580;8.912;2023-08-24T11:48:16;4.32;;;3.58;;
32533;SDS011;18973;48.580;8.912;2023-08-24T11:50:42;12.43;;;4.10;;
32533;SDS011;18973;48.580;8.912;2023-08-24T11:53:07;6.75;;;3.55;;
32533;SDS011;18973;48.580;8.912;2023-08-24T11:55:33;5.05;;;4.13;;
32533;SDS011;18973;48.580;8.912;2023-08-24T11:58:04;4.00;;;3.28;;
32533;SDS011;18973;48.580;8.912;2023-08-24T12:00:30;5.15;;;3.88;;
32533;SDS011;18973;48.580;8.912;2023-08-24T12:02:58;4.95;;;3.63;;
32533;SDS011;18973;48.580;8.912;2023-08-24T12:05:25;5.60;;;3.42;;
32533;SDS011;18973;48.580;8.912;2023-08-24T12:07:52;7.05;;;3.80;;
32533;SDS011;18973;48.580;8.912;2023-08-24T12:10:18;7.05;;;3.50;;
32533;SDS011;18973;48.580;8.912;2023-08-24T12:12:44;5.20;;;3.35;;
32533;SDS011;18973;48.580;8.912;2023-08-24T12:15:17;6.03;;;3.60;;
32533;SDS011;18973;48.580;8.912;2023-08-24T12:17:45;4.97;;;3.38;;
32533;SDS011;18973;48.580;8.912;2023-08-24T12:20:19;11.25;;;4.00;;
32533;SDS011;18973;48.580;8.912;2023-08-24T12:22:52;5.88;;;2.97;;
32533;SDS011;18973;48.580;8.912;2023-08-24T12:25:21;7.43;;;3.17;;
32533;SDS011;18973;48.580;8.912;2023-08-24T12:27:48;4.20;;;3.15;;
32533;SDS011;18973;48.580;8.912;2023-08-24T12:30:15;6.38;;;3.10;;
32533;SDS011;18973;48.580;8.912;2023-08-24T12:32:41;8.30;;;3.65;;
32533;SDS011;18973;48.580;8.912;2023-08-24T12:35:09;8.63;;;3.65;;
32533;SDS011;18973;48.580;8.912;2023-08-24T12:37:38;4.00;;;3.60;;
32533;SDS011;18973;48.580;8.912;2023-08-24T12:40:03;5.95;;;3.10;;
32533;SDS011;18973;48.580;8.912;2023-08-24T12:42:30;8.52;;;3.83;;
32533;SDS011;18973;48.580;8.912;2023-08-24T12:44:56;6.13;;;3.33;;
32533;SDS011;18973;48.580;8.912;2023-08-24T12:47:22;5.25;;;3.65;;
32533;SDS011;18973;48.580;8.912;2023-08-24T12:49:48;6.28;;;3.25;;
32533;SDS011;18973;48.580;8.912;2023-08-24T12:52:15;7.13;;;3.50;;
32533;SDS011;18973;48.580;8.912;2023-08-24T12:54:42;6.22;;;3.60;;
32533;SDS011;18973;48.580;8.912;2023-08-24T12:57:07;5.43;;;3.20;;
32533;SDS011;18973;48.580;8.912;2023-08-24T12:59:33;8.88;;;4.60;;
32533;SDS011;18973;48.580;8.912;2023-08-24T13:01:59;9.55;;;3.58;;
32533;SDS011;18973;48.580;8.912;2023-08-24T13:04:25;4.10;;;2.63;;
32533;SDS011;18973;48.580;8.912;2023-08-24T13:06:53;7.60;;;3.22;;
32533;SDS011;18973;48.580;8.912;2023-08-24T13:09:19;5.75;;;3.15;;
32533;SDS011;18973;48.580;8.912;2023-08-24T13:11:44;5.70;;;2.95;;
32533;SDS011;18973;48.580;8.912;2023-08-24T13:14:10;8.02;;;2.90;;
32533;SDS011;18973;48.580;8.912;2023-08-24T13:16:36;7.18;;;3.33;;
32533;SDS011;18973;48.580;8.912;2023-08-24T13:19:05;4.32;;;2.80;;
32533;SDS011;18973;48.580;8.912;2023-08-24T13:21:31;5.38;;;3.30;;
32533;SDS011;18973;48.580;8.912;2023-08-24T13:23:56;7.85;;;4.00;;
32533;SDS011;18973;48.580;8.912;2023-08-24T13:26:22;11.32;;;3.90;;
32533;SDS011;18973;48.580;8.912;2023-08-24T13:28:48;5.13;;;3.65;;
32533;SDS011;18973;48.580;8.912;2023-08-24T13:31:14;5.38;;;3.60;;
32533;SDS011;18973;48.580;8.912;2023-08-24T13:33:41;12.57;;;3.58;;
32533;SDS011;18973;48.580;8.912;2023-08-24T13:36:06;8.63;;;3.33;;
32533;SDS011;18973;48.580;8.912;2023-08-24T13:38:32;5.60;;;3.15;;
32533;SDS011;18973;48.580;8.912;2023-08-24T13:40:57;6.40;;;2.83;;
32533;SDS011;18973;48.580;8.912;2023-08-24T13:43:23;5.80;;;3.85;;
32533;SDS011;18973;48.580;8.912;2023-08-24T13:45:49;7.35;;;3.30;;
32533;SDS011;18973;48.580;8.912;2023-08-24T13:48:15;5.93;;;3.25;;
32533;SDS011;18973;48.580;8.912;2023-08-24T13:50:41;8.10;;;3.28;;
32533;SDS011;18973;48.580;8.912;2023-08-24T13:53:14;8.93;;;3.65;;
32533;SDS011;18973;48.580;8.912;2023-08-24T13:55:40;8.00;;;3.33;;
32533;SDS011;18973;48.580;8.912;2023-08-24T13:58:06;5.80;;;3.80;;
32533;SDS011;18973;48.580;8.912;2023-08-24T14:00:31;9.52;;;3.58;;
32533;SDS011;18973;48.580;8.912;2023-08-24T14:02:57;5.03;;;2.78;;
32533;SDS011;18973;48.580;8.912;2023-08-24T14:05:23;6.13;;;3.20;;
32533;SDS011;18973;48.580;8.912;2023-08-24T14:07:48;6.95;;;2.97;;
32533;SDS011;18973;48.580;8.912;2023-08-24T14:10:15;5.28;;;3.33;;
32533;SDS011;18973;48.580;8.912;2023-08-24T14:12:41;6.32;;;2.83;;
32533;SDS011;18973;48.580;8.912;2023-08-24T14:15:06;5.68;;;3.05;;
32533;SDS011;18973;48.580;8.912;2023-08-24T14:17:33;8.05;;;3.20;;
32533;SDS011;18973;48.580;8.912;2023-08-24T14:19:58;12.65;;;3.75;;
32533;SDS011;18973;48.580;8.912;2023-08-24T14:22:25;4.78;;;3.53;;
32533;SDS011;18973;48.580;8.912;2023-08-24T14:24:51;7.70;;;3.78;;
32533;SDS011;18973;48.580;8.912;2023-08-24T14:27:16;6.00;;;2.88;;
32533;SDS011;18973;48.580;8.912;2023-08-24T14:29:42;8.15;;;3.10;;
32533;SDS011;18973;48.580;8.912;2023-08-24T14:32:07;6.15;;;3.38;;
32533;SDS011;18973;48.580;8.912;2023-08-24T14:34:34;6.80;;;3.00;;
32533;SDS011;18973;48.580;8.912;2023-08-24T14:36:59;7.10;;;3.10;;
32533;SDS011;18973;48.580;8.912;2023-08-24T14:39:25;4.78;;;3.47;;
32533;SDS011;18973;48.580;8.912;2023-08-24T14:41:51;4.95;;;3.13;;
32533;SDS011;18973;48.580;8.912;2023-08-24T14:44:16;5.97;;;3.08;;
32533;SDS011;18973;48.580;8.912;2023-08-24T14:46:42;4.53;;;2.97;;
32533;SDS011;18973;48.580;8.912;2023-08-24T14:49:09;12.07;;;2.90;;